sensor_id;sensor_type;location;lat;lon;timestamp;pressure;altitude;pressure_sealevel;temperature;humidity
62055;BME280;48653;51.742;-1.256;2023-07-29T00:01:46;99886.64;;;19.85;49.04
62055;BME280;48653;51.742;-1.256;2023-07-29T00:04:11;99888.77;;;19.55;48.95
62055;BME280;48653;51.742;-1.256;2023-07-29T00:06:36;99895.97;;;19.38;50.15
62055;BME280;48653;51.742;-1.256;2023-07-29T00:09:02;99892.41;;;19.36;49.31
62055;BME280;48653;51.742;-1.256;2023-07-29T00:11:26;99889.41;;;18.48;51.36
62055;BME280;48653;51.742;-1.256;2023-07-29T00:13:51;99888.62;;;18.97;51.04
62055;BME280;48653;51.742;-1.256;2023-07-29T00:16:16;99886.77;;;19.39;50.85
62055;BME280;48653;51.742;-1.256;2023-07-29T00:18:42;99885.17;;;19.40;50.48
62055;BME280;48653;51.742;-1.256;2023-07-29T00:21:07;99892.08;;;18.95;50.07
62055;BME280;48653;51.742;-1.256;2023-07-29T00:23:32;99889.81;;;19.38;49.14
62055;BME280;48653;51.742;-1.256;2023-07-29T00:25:57;99889.27;;;19.42;48.88
62055;BME280;48653;51.742;-1.256;2023-07-29T00:28:22;99891.61;;;19.29;49.58
62055;BME280;48653;51.742;-1.256;2023-07-29T00:30:48;99895.23;;;18.95;49.86
62055;BME280;48653;51.742;-1.256;2023-07-29T00:33:13;99895.06;;;18.94;49.55
62055;BME280;48653;51.742;-1.256;2023-07-29T00:35:38;99890.59;;;18.91;49.41
62055;BME280;48653;51.742;-1.256;2023-07-29T00:38:03;99889.78;;;19.27;49.30
62055;BME280;48653;51.742;-1.256;2023-07-29T00:40:28;99884.10;;;19.25;49.50
62055;BME280;48653;51.742;-1.256;2023-07-29T00:42:53;99882.62;;;19.12;49.64
62055;BME280;48653;51.742;-1.256;2023-07-29T00:45:19;99889.41;;;19.31;48.99
62055;BME280;48653;51.742;-1.256;2023-07-29T00:47:44;99890.31;;;19.57;48.69
62055;BME280;48653;51.742;-1.256;2023-07-29T00:50:09;99892.71;;;18.82;49.21
62055;BME280;48653;51.742;-1.256;2023-07-29T00:52:34;99890.48;;;19.50;48.58
62055;BME280;48653;51.742;-1.256;2023-07-29T00:54:59;99891.09;;;19.15;49.15
62055;BME280;48653;51.742;-1.256;2023-07-29T00:57:24;99888.13;;;18.89;49.26
62055;BME280;48653;51.742;-1.256;2023-07-29T00:59:49;99885.90;;;19.19;49.33
62055;BME280;48653;51.742;-1.256;2023-07-29T01:02:14;99884.96;;;18.96;49.28
62055;BME280;48653;51.742;-1.256;2023-07-29T01:04:39;99886.25;;;19.13;49.43
62055;BME280;48653;51.742;-1.256;2023-07-29T01:07:11;99889.67;;;18.98;49.33
62055;BME280;48653;51.742;-1.256;2023-07-29T01:09:34;99883.52;;;18.97;50.05
62055;BME280;48653;51.742;-1.256;2023-07-29T01:12:00;99881.32;;;18.98;49.56
62055;BME280;48653;51.742;-1.256;2023-07-29T01:14:24;99875.13;;;19.15;48.87
62055;BME280;48653;51.742;-1.256;2023-07-29T01:16:48;99873.29;;;19.09;49.25
62055;BME280;48653;51.742;-1.256;2023-07-29T01:19:15;99867.44;;;19.24;49.01
62055;BME280;48653;51.742;-1.256;2023-07-29T01:21:35;99867.30;;;19.11;49.34
62055;BME280;48653;51.742;-1.256;2023-07-29T01:23:59;99861.92;;;19.22;48.91
62055;BME280;48653;51.742;-1.256;2023-07-29T01:26:24;99865.52;;;18.51;50.17
62055;BME280;48653;51.742;-1.256;2023-07-29T01:28:49;99860.26;;;18.30;50.56
62055;BME280;48653;51.742;-1.256;2023-07-29T01:31:20;99859.32;;;18.74;51.16
62055;BME280;48653;51.742;-1.256;2023-07-29T01:33:44;99853.35;;;18.95;50.28
62055;BME280;48653;51.742;-1.256;2023-07-29T01:36:10;99855.37;;;19.32;49.52
62055;BME280;48653;51.742;-1.256;2023-07-29T01:38:33;99859.54;;;18.88;49.81
62055;BME280;48653;51.742;-1.256;2023-07-29T01:40:57;99858.66;;;18.87;49.87
62055;BME280;48653;51.742;-1.256;2023-07-29T01:43:20;99859.81;;;19.04;49.51
62055;BME280;48653;51.742;-1.256;2023-07-29T01:45:45;99864.44;;;19.07;49.17
62055;BME280;48653;51.742;-1.256;2023-07-29T01:48:10;99857.83;;;19.18;49.79
62055;BME280;48653;51.742;-1.256;2023-07-29T01:50:35;99862.03;;;18.55;49.46
62055;BME280;48653;51.742;-1.256;2023-07-29T01:53:00;99856.43;;;18.67;48.83
62055;BME280;48653;51.742;-1.256;2023-07-29T01:55:25;99849.16;;;19.07;49.29
62055;BME280;48653;51.742;-1.256;2023-07-29T01:57:50;99849.83;;;19.05;49.17
62055;BME280;48653;51.742;-1.256;2023-07-29T02:00:16;99844.27;;;19.25;48.85
62055;BME280;48653;51.742;-1.256;2023-07-29T02:02:41;99848.52;;;18.99;49.26
62055;BME280;48653;51.742;-1.256;2023-07-29T02:05:06;99850.25;;;19.06;49.38
62055;BME280;48653;51.742;-1.256;2023-07-29T02:07:31;99848.59;;;18.39;50.66
62055;BME280;48653;51.742;-1.256;2023-07-29T02:09:56;99845.80;;;18.53;50.58
62055;BME280;48653;51.742;-1.256;2023-07-29T02:12:21;99845.16;;;18.48;50.25
62055;BME280;48653;51.742;-1.256;2023-07-29T02:14:46;99848.90;;;18.81;50.04
62055;BME280;48653;51.742;-1.256;2023-07-29T02:17:11;99850.16;;;18.59;49.97
62055;BME280;48653;51.742;-1.256;2023-07-29T02:19:36;99852.26;;;18.65;49.71
62055;BME280;48653;51.742;-1.256;2023-07-29T02:22:01;99848.41;;;18.81;50.12
62055;BME280;48653;51.742;-1.256;2023-07-29T02:24:27;99846.50;;;18.61;49.25
62055;BME280;48653;51.742;-1.256;2023-07-29T02:26:52;99845.89;;;18.61;49.21
62055;BME280;48653;51.742;-1.256;2023-07-29T02:29:17;99851.95;;;18.67;49.77
62055;BME280;48653;51.742;-1.256;2023-07-29T02:31:42;99845.85;;;19.03;49.04
62055;BME280;48653;51.742;-1.256;2023-07-29T02:34:07;99841.29;;;18.87;49.17
62055;BME280;48653;51.742;-1.256;2023-07-29T02:36:32;99836.57;;;18.12;50.29
62055;BME280;48653;51.742;-1.256;2023-07-29T02:38:58;99834.15;;;18.59;50.21
62055;BME280;48653;51.742;-1.256;2023-07-29T02:41:22;99829.54;;;18.88;48.74
62055;BME280;48653;51.742;-1.256;2023-07-29T02:43:48;99834.28;;;18.53;49.37
62055;BME280;48653;51.742;-1.256;2023-07-29T02:46:12;99831.45;;;17.53;50.92
62055;BME280;48653;51.742;-1.256;2023-07-29T02:48:37;99830.66;;;18.34;49.56
62055;BME280;48653;51.742;-1.256;2023-07-29T02:51:02;99828.90;;;18.31;49.16
62055;BME280;48653;51.742;-1.256;2023-07-29T02:53:27;99830.13;;;18.73;48.49
62055;BME280;48653;51.742;-1.256;2023-07-29T02:55:53;99830.17;;;18.50;49.34
62055;BME280;48653;51.742;-1.256;2023-07-29T02:58:18;99828.26;;;18.51;49.52
62055;BME280;48653;51.742;-1.256;2023-07-29T03:00:43;99827.66;;;18.68;49.20
62055;BME280;48653;51.742;-1.256;2023-07-29T03:03:08;99829.95;;;18.57;49.55
62055;BME280;48653;51.742;-1.256;2023-07-29T03:05:34;99828.23;;;18.27;50.60
62055;BME280;48653;51.742;-1.256;2023-07-29T03:07:58;99830.12;;;18.61;50.74
62055;BME280;48653;51.742;-1.256;2023-07-29T03:10:24;99825.91;;;18.31;50.13
62055;BME280;48653;51.742;-1.256;2023-07-29T03:12:49;99823.68;;;18.06;51.16
62055;BME280;48653;51.742;-1.256;2023-07-29T03:15:14;99822.25;;;18.05;51.03
62055;BME280;48653;51.742;-1.256;2023-07-29T03:17:39;99816.46;;;17.98;51.35
62055;BME280;48653;51.742;-1.256;2023-07-29T03:20:05;99819.34;;;17.58;51.74
62055;BME280;48653;51.742;-1.256;2023-07-29T03:22:29;99818.96;;;18.20;50.70
62055;BME280;48653;51.742;-1.256;2023-07-29T03:24:54;99819.62;;;17.70;51.01
62055;BME280;48653;51.742;-1.256;2023-07-29T03:27:20;99818.80;;;17.83;50.53
62055;BME280;48653;51.742;-1.256;2023-07-29T03:29:45;99816.15;;;17.81;50.76
62055;BME280;48653;51.742;-1.256;2023-07-29T03:32:10;99819.04;;;18.01;50.64
62055;BME280;48653;51.742;-1.256;2023-07-29T03:34:35;99820.74;;;18.07;50.18
62055;BME280;48653;51.742;-1.256;2023-07-29T03:37:00;99819.91;;;18.32;49.61
62055;BME280;48653;51.742;-1.256;2023-07-29T03:39:25;99814.20;;;18.49;49.64
62055;BME280;48653;51.742;-1.256;2023-07-29T03:41:50;99818.79;;;17.89;50.07
62055;BME280;48653;51.742;-1.256;2023-07-29T03:44:15;99819.90;;;18.16;50.36
62055;BME280;48653;51.742;-1.256;2023-07-29T03:46:40;99825.55;;;17.82;50.96
62055;BME280;48653;51.742;-1.256;2023-07-29T03:49:05;99827.60;;;17.98;50.47
62055;BME280;48653;51.742;-1.256;2023-07-29T03:51:30;99822.28;;;18.08;50.18
62055;BME280;48653;51.742;-1.256;2023-07-29T03:53:56;99833.52;;;17.54;50.90
62055;BME280;48653;51.742;-1.256;2023-07-29T03:56:21;99835.51;;;17.70;51.03
62055;BME280;48653;51.742;-1.256;2023-07-29T03:58:47;99842.65;;;18.19;50.66
62055;BME280;48653;51.742;-1.256;2023-07-29T04:01:12;99846.90;;;17.88;50.79
62055;BME280;48653;51.742;-1.256;2023-07-29T04:03:37;99845.25;;;18.39;50.44
62055;BME280;48653;51.742;-1.256;2023-07-29T04:06:02;99844.36;;;17.99;51.38
62055;BME280;48653;51.742;-1.256;2023-07-29T04:08:27;99836.11;;;17.88;51.30
62055;BME280;48653;51.742;-1.256;2023-07-29T04:10:52;99839.48;;;17.53;52.33
62055;BME280;48653;51.742;-1.256;2023-07-29T04:13:17;99841.13;;;17.82;51.80
62055;BME280;48653;51.742;-1.256;2023-07-29T04:15:42;99839.16;;;17.86;52.16
62055;BME280;48653;51.742;-1.256;2023-07-29T04:18:07;99835.61;;;17.82;52.03
62055;BME280;48653;51.742;-1.256;2023-07-29T04:20:32;99838.96;;;17.63;51.46
62055;BME280;48653;51.742;-1.256;2023-07-29T04:22:58;99837.59;;;17.57;51.55
62055;BME280;48653;51.742;-1.256;2023-07-29T04:25:22;99840.16;;;17.85;50.96
62055;BME280;48653;51.742;-1.256;2023-07-29T04:27:47;99841.60;;;18.29;50.32
62055;BME280;48653;51.742;-1.256;2023-07-29T04:30:12;99837.38;;;17.52;50.43
62055;BME280;48653;51.742;-1.256;2023-07-29T04:32:37;99833.76;;;18.04;49.83
62055;BME280;48653;51.742;-1.256;2023-07-29T04:35:03;99834.07;;;18.26;49.74
62055;BME280;48653;51.742;-1.256;2023-07-29T04:37:28;99831.12;;;17.71;50.55
62055;BME280;48653;51.742;-1.256;2023-07-29T04:39:53;99831.52;;;17.86;50.25
62055;BME280;48653;51.742;-1.256;2023-07-29T04:42:18;99831.21;;;17.70;50.48
62055;BME280;48653;51.742;-1.256;2023-07-29T04:44:43;99829.61;;;18.04;50.24
62055;BME280;48653;51.742;-1.256;2023-07-29T04:47:08;99827.58;;;18.00;49.95
62055;BME280;48653;51.742;-1.256;2023-07-29T04:49:33;99832.15;;;18.00;50.45
62055;BME280;48653;51.742;-1.256;2023-07-29T04:51:58;99832.31;;;18.28;49.94
62055;BME280;48653;51.742;-1.256;2023-07-29T04:54:23;99831.16;;;18.08;49.82
62055;BME280;48653;51.742;-1.256;2023-07-29T04:56:48;99833.72;;;17.69;50.69
62055;BME280;48653;51.742;-1.256;2023-07-29T04:59:13;99831.17;;;17.51;50.81
62055;BME280;48653;51.742;-1.256;2023-07-29T05:01:38;99832.36;;;17.46;51.36
62055;BME280;48653;51.742;-1.256;2023-07-29T05:04:03;99831.30;;;17.65;51.10
62055;BME280;48653;51.742;-1.256;2023-07-29T05:06:29;99832.96;;;17.65;51.04
62055;BME280;48653;51.742;-1.256;2023-07-29T05:08:54;99832.06;;;17.41;51.20
62055;BME280;48653;51.742;-1.256;2023-07-29T05:11:19;99831.88;;;17.67;50.52
62055;BME280;48653;51.742;-1.256;2023-07-29T05:13:44;99831.56;;;18.29;49.90
62055;BME280;48653;51.742;-1.256;2023-07-29T05:16:09;99837.67;;;17.67;50.66
62055;BME280;48653;51.742;-1.256;2023-07-29T05:18:34;99838.73;;;17.54;50.87
62055;BME280;48653;51.742;-1.256;2023-07-29T05:21:00;99837.70;;;17.61;51.07
62055;BME280;48653;51.742;-1.256;2023-07-29T05:23:25;99838.64;;;17.80;50.36
62055;BME280;48653;51.742;-1.256;2023-07-29T05:25:50;99836.61;;;17.81;50.62
62055;BME280;48653;51.742;-1.256;2023-07-29T05:28:15;99834.32;;;17.75;50.34
62055;BME280;48653;51.742;-1.256;2023-07-29T05:30:40;99836.13;;;17.73;49.38
62055;BME280;48653;51.742;-1.256;2023-07-29T05:33:05;99834.27;;;17.80;49.39
62055;BME280;48653;51.742;-1.256;2023-07-29T05:35:31;99837.94;;;18.22;49.61
62055;BME280;48653;51.742;-1.256;2023-07-29T05:37:57;99839.01;;;17.79;49.83
62055;BME280;48653;51.742;-1.256;2023-07-29T05:40:21;99841.79;;;17.83;50.06
62055;BME280;48653;51.742;-1.256;2023-07-29T05:42:46;99846.16;;;18.14;50.10
62055;BME280;48653;51.742;-1.256;2023-07-29T05:45:11;99850.73;;;17.78;50.51
62055;BME280;48653;51.742;-1.256;2023-07-29T05:47:36;99851.33;;;17.90;50.40
62055;BME280;48653;51.742;-1.256;2023-07-29T05:50:01;99852.51;;;17.88;50.45
62055;BME280;48653;51.742;-1.256;2023-07-29T05:52:26;99855.54;;;17.93;50.40
62055;BME280;48653;51.742;-1.256;2023-07-29T05:54:51;99856.15;;;17.27;51.38
62055;BME280;48653;51.742;-1.256;2023-07-29T05:57:16;99860.39;;;17.73;51.10
62055;BME280;48653;51.742;-1.256;2023-07-29T05:59:41;99859.39;;;17.19;51.98
62055;BME280;48653;51.742;-1.256;2023-07-29T06:02:06;99858.61;;;16.73;52.68
62055;BME280;48653;51.742;-1.256;2023-07-29T06:04:31;99864.31;;;17.94;51.85
62055;BME280;48653;51.742;-1.256;2023-07-29T06:06:57;99860.43;;;17.51;52.56
62055;BME280;48653;51.742;-1.256;2023-07-29T06:09:21;99857.97;;;16.63;53.90
62055;BME280;48653;51.742;-1.256;2023-07-29T06:11:47;99864.48;;;17.37;52.13
62055;BME280;48653;51.742;-1.256;2023-07-29T06:14:12;99862.42;;;17.94;52.11
62055;BME280;48653;51.742;-1.256;2023-07-29T06:16:37;99865.68;;;17.53;51.39
62055;BME280;48653;51.742;-1.256;2023-07-29T06:19:02;99863.04;;;17.58;51.84
62055;BME280;48653;51.742;-1.256;2023-07-29T06:21:27;99864.96;;;17.44;51.10
62055;BME280;48653;51.742;-1.256;2023-07-29T06:23:52;99862.79;;;18.42;50.15
62055;BME280;48653;51.742;-1.256;2023-07-29T06:26:17;99865.54;;;17.37;52.03
62055;BME280;48653;51.742;-1.256;2023-07-29T06:28:42;99863.95;;;17.67;51.85
62055;BME280;48653;51.742;-1.256;2023-07-29T06:31:07;99866.50;;;17.63;51.44
62055;BME280;48653;51.742;-1.256;2023-07-29T06:33:32;99862.23;;;18.19;51.22
62055;BME280;48653;51.742;-1.256;2023-07-29T06:36:03;99856.47;;;18.18;50.90
62055;BME280;48653;51.742;-1.256;2023-07-29T06:38:22;99853.03;;;18.26;49.69
62055;BME280;48653;51.742;-1.256;2023-07-29T06:40:47;99842.02;;;18.21;50.20
62055;BME280;48653;51.742;-1.256;2023-07-29T06:43:12;99851.55;;;18.51;49.68
62055;BME280;48653;51.742;-1.256;2023-07-29T06:45:37;99851.38;;;19.03;48.68
62055;BME280;48653;51.742;-1.256;2023-07-29T06:48:03;99856.83;;;19.03;48.89
62055;BME280;48653;51.742;-1.256;2023-07-29T06:50:28;99857.54;;;18.39;49.86
62055;BME280;48653;51.742;-1.256;2023-07-29T06:52:54;99858.68;;;19.13;49.02
62055;BME280;48653;51.742;-1.256;2023-07-29T06:55:20;99856.55;;;18.97;47.97
62055;BME280;48653;51.742;-1.256;2023-07-29T06:57:43;99859.58;;;18.37;50.40
62055;BME280;48653;51.742;-1.256;2023-07-29T07:00:10;99864.17;;;19.22;48.68
62055;BME280;48653;51.742;-1.256;2023-07-29T07:02:34;99865.24;;;18.50;49.28
62055;BME280;48653;51.742;-1.256;2023-07-29T07:04:59;99867.00;;;18.96;49.06
62055;BME280;48653;51.742;-1.256;2023-07-29T07:07:24;99868.79;;;18.62;50.47
62055;BME280;48653;51.742;-1.256;2023-07-29T07:09:49;99867.48;;;17.86;52.31
62055;BME280;48653;51.742;-1.256;2023-07-29T07:14:39;99857.56;;;17.98;50.53
62055;BME280;48653;51.742;-1.256;2023-07-29T07:17:05;99856.01;;;19.34;48.89
62055;BME280;48653;51.742;-1.256;2023-07-29T07:19:30;99854.05;;;19.42;48.88
62055;BME280;48653;51.742;-1.256;2023-07-29T07:21:54;99849.25;;;18.98;48.07
62055;BME280;48653;51.742;-1.256;2023-07-29T07:24:19;99850.13;;;19.38;48.10
62055;BME280;48653;51.742;-1.256;2023-07-29T07:26:44;99853.15;;;20.10;46.77
62055;BME280;48653;51.742;-1.256;2023-07-29T07:29:09;99852.39;;;19.33;47.24
62055;BME280;48653;51.742;-1.256;2023-07-29T07:31:34;99846.36;;;19.83;47.46
62055;BME280;48653;51.742;-1.256;2023-07-29T07:33:59;99846.69;;;19.40;46.80
62055;BME280;48653;51.742;-1.256;2023-07-29T07:36:24;99850.71;;;18.71;47.92
62055;BME280;48653;51.742;-1.256;2023-07-29T07:38:49;99851.81;;;20.13;46.33
62055;BME280;48653;51.742;-1.256;2023-07-29T07:41:14;99851.83;;;19.29;47.02
62055;BME280;48653;51.742;-1.256;2023-07-29T07:43:39;99854.37;;;20.22;45.20
62055;BME280;48653;51.742;-1.256;2023-07-29T07:46:05;99853.56;;;19.30;46.82
62055;BME280;48653;51.742;-1.256;2023-07-29T07:48:29;99858.95;;;19.95;45.71
62055;BME280;48653;51.742;-1.256;2023-07-29T07:50:55;99857.46;;;19.11;46.88
62055;BME280;48653;51.742;-1.256;2023-07-29T07:53:20;99861.68;;;19.50;46.09
62055;BME280;48653;51.742;-1.256;2023-07-29T07:55:45;99857.82;;;20.07;45.30
62055;BME280;48653;51.742;-1.256;2023-07-29T07:58:10;99856.87;;;20.26;44.42
62055;BME280;48653;51.742;-1.256;2023-07-29T08:00:35;99856.55;;;20.09;44.62
62055;BME280;48653;51.742;-1.256;2023-07-29T08:03:00;99853.57;;;19.38;45.58
62055;BME280;48653;51.742;-1.256;2023-07-29T08:05:25;99860.56;;;19.70;46.00
62055;BME280;48653;51.742;-1.256;2023-07-29T08:07:50;99867.62;;;19.01;46.80
62055;BME280;48653;51.742;-1.256;2023-07-29T08:10:15;99868.16;;;19.47;47.81
62055;BME280;48653;51.742;-1.256;2023-07-29T08:12:40;99867.20;;;18.64;47.80
62055;BME280;48653;51.742;-1.256;2023-07-29T08:15:06;99867.33;;;18.54;47.88
62055;BME280;48653;51.742;-1.256;2023-07-29T08:17:30;99865.76;;;19.59;46.82
62055;BME280;48653;51.742;-1.256;2023-07-29T08:19:55;99866.89;;;20.71;44.83
62055;BME280;48653;51.742;-1.256;2023-07-29T08:22:21;99871.83;;;20.27;45.32
62055;BME280;48653;51.742;-1.256;2023-07-29T08:24:45;99873.94;;;19.88;44.82
62055;BME280;48653;51.742;-1.256;2023-07-29T08:27:10;99869.87;;;19.58;45.23
62055;BME280;48653;51.742;-1.256;2023-07-29T08:29:35;99867.07;;;19.50;45.23
62055;BME280;48653;51.742;-1.256;2023-07-29T08:32:00;99862.63;;;19.51;45.17
62055;BME280;48653;51.742;-1.256;2023-07-29T08:34:25;99864.36;;;19.53;45.71
62055;BME280;48653;51.742;-1.256;2023-07-29T08:36:50;99860.72;;;19.90;45.24
62055;BME280;48653;51.742;-1.256;2023-07-29T08:39:15;99865.18;;;19.22;45.72
62055;BME280;48653;51.742;-1.256;2023-07-29T08:41:46;99864.25;;;19.02;46.09
62055;BME280;48653;51.742;-1.256;2023-07-29T08:44:10;99861.84;;;19.30;45.90
62055;BME280;48653;51.742;-1.256;2023-07-29T08:46:31;99865.43;;;18.53;45.89
62055;BME280;48653;51.742;-1.256;2023-07-29T08:48:56;99857.70;;;19.10;45.25
62055;BME280;48653;51.742;-1.256;2023-07-29T08:51:21;99860.15;;;19.40;45.34
62055;BME280;48653;51.742;-1.256;2023-07-29T08:53:46;99857.74;;;18.99;45.48
62055;BME280;48653;51.742;-1.256;2023-07-29T08:56:11;99861.70;;;20.24;44.06
62055;BME280;48653;51.742;-1.256;2023-07-29T08:58:36;99862.46;;;20.49;43.19
62055;BME280;48653;51.742;-1.256;2023-07-29T09:01:01;99864.75;;;19.55;44.80
62055;BME280;48653;51.742;-1.256;2023-07-29T09:03:26;99861.57;;;20.10;44.48
62055;BME280;48653;51.742;-1.256;2023-07-29T09:05:51;99861.62;;;20.20;44.64
62055;BME280;48653;51.742;-1.256;2023-07-29T09:08:16;99861.95;;;20.57;42.72
62055;BME280;48653;51.742;-1.256;2023-07-29T09:10:42;99853.74;;;21.23;42.25
62055;BME280;48653;51.742;-1.256;2023-07-29T09:13:07;99859.19;;;20.64;43.33
62055;BME280;48653;51.742;-1.256;2023-07-29T09:15:34;99860.59;;;20.44;43.25
62055;BME280;48653;51.742;-1.256;2023-07-29T09:17:58;99856.10;;;20.93;41.80
62055;BME280;48653;51.742;-1.256;2023-07-29T09:20:24;99857.45;;;21.94;41.18
62055;BME280;48653;51.742;-1.256;2023-07-29T09:22:47;99858.09;;;21.70;40.68
62055;BME280;48653;51.742;-1.256;2023-07-29T09:25:12;99859.99;;;21.78;40.25
62055;BME280;48653;51.742;-1.256;2023-07-29T09:27:37;99861.41;;;21.90;40.44
62055;BME280;48653;51.742;-1.256;2023-07-29T09:30:02;99862.63;;;21.77;39.48
62055;BME280;48653;51.742;-1.256;2023-07-29T09:32:27;99864.94;;;21.61;38.69
62055;BME280;48653;51.742;-1.256;2023-07-29T09:34:52;99863.55;;;20.85;39.89
62055;BME280;48653;51.742;-1.256;2023-07-29T09:37:18;99871.49;;;21.34;40.21
62055;BME280;48653;51.742;-1.256;2023-07-29T09:39:44;99874.15;;;21.12;41.67
62055;BME280;48653;51.742;-1.256;2023-07-29T09:42:11;99872.92;;;20.65;40.82
62055;BME280;48653;51.742;-1.256;2023-07-29T09:44:37;99877.82;;;20.24;42.29
62055;BME280;48653;51.742;-1.256;2023-07-29T09:46:59;99879.27;;;20.74;41.46
62055;BME280;48653;51.742;-1.256;2023-07-29T09:49:24;99882.54;;;20.03;41.86
62055;BME280;48653;51.742;-1.256;2023-07-29T09:51:49;99884.97;;;19.88;43.21
62055;BME280;48653;51.742;-1.256;2023-07-29T09:54:14;99881.14;;;20.62;41.56
62055;BME280;48653;51.742;-1.256;2023-07-29T09:56:42;99879.17;;;20.52;42.02
62055;BME280;48653;51.742;-1.256;2023-07-29T09:59:05;99881.97;;;21.56;40.85
62055;BME280;48653;51.742;-1.256;2023-07-29T10:06:21;99890.96;;;20.80;41.51
62055;BME280;48653;51.742;-1.256;2023-07-29T10:08:48;99890.52;;;20.48;41.76
62055;BME280;48653;51.742;-1.256;2023-07-29T10:13:36;99896.75;;;22.48;38.83
62055;BME280;48653;51.742;-1.256;2023-07-29T10:16:02;99896.00;;;23.58;38.46
62055;BME280;48653;51.742;-1.256;2023-07-29T10:18:28;99889.51;;;22.73;38.14
62055;BME280;48653;51.742;-1.256;2023-07-29T10:20:54;99890.70;;;22.14;38.51
62055;BME280;48653;51.742;-1.256;2023-07-29T10:23:20;99891.66;;;21.84;39.67
62055;BME280;48653;51.742;-1.256;2023-07-29T10:25:47;99896.09;;;21.06;39.79
62055;BME280;48653;51.742;-1.256;2023-07-29T10:28:12;99896.03;;;22.08;38.82
62055;BME280;48653;51.742;-1.256;2023-07-29T10:30:36;99896.66;;;22.32;39.74
62055;BME280;48653;51.742;-1.256;2023-07-29T10:33:03;99897.06;;;22.35;38.32
62055;BME280;48653;51.742;-1.256;2023-07-29T10:35:28;99905.33;;;22.62;39.40
62055;BME280;48653;51.742;-1.256;2023-07-29T10:37:52;99904.66;;;22.05;38.45
62055;BME280;48653;51.742;-1.256;2023-07-29T10:40:18;99906.25;;;22.95;37.18
62055;BME280;48653;51.742;-1.256;2023-07-29T10:42:59;99906.63;;;22.88;38.12
62055;BME280;48653;51.742;-1.256;2023-07-29T10:45:20;99905.02;;;22.46;37.26
62055;BME280;48653;51.742;-1.256;2023-07-29T10:47:34;99905.88;;;21.72;38.59
62055;BME280;48653;51.742;-1.256;2023-07-29T10:50:00;99913.98;;;23.49;36.45
62055;BME280;48653;51.742;-1.256;2023-07-29T10:52:31;99913.41;;;23.51;36.13
62055;BME280;48653;51.742;-1.256;2023-07-29T10:54:50;99904.22;;;24.62;33.99
62055;BME280;48653;51.742;-1.256;2023-07-29T10:57:15;99910.94;;;25.04;32.68
62055;BME280;48653;51.742;-1.256;2023-07-29T10:59:42;99902.90;;;24.62;33.70
62055;BME280;48653;51.742;-1.256;2023-07-29T11:02:17;99905.91;;;24.99;32.91
62055;BME280;48653;51.742;-1.256;2023-07-29T11:04:32;99902.96;;;24.80;32.97
62055;BME280;48653;51.742;-1.256;2023-07-29T11:11:50;99890.33;;;24.54;32.95
62055;BME280;48653;51.742;-1.256;2023-07-29T11:14:14;99895.28;;;25.37;31.35
62055;BME280;48653;51.742;-1.256;2023-07-29T11:16:41;99897.15;;;25.84;32.20
62055;BME280;48653;51.742;-1.256;2023-07-29T11:19:10;99896.69;;;25.55;31.03
62055;BME280;48653;51.742;-1.256;2023-07-29T11:21:33;99885.91;;;26.28;30.74
62055;BME280;48653;51.742;-1.256;2023-07-29T11:23:58;99886.07;;;26.17;30.23
62055;BME280;48653;51.742;-1.256;2023-07-29T11:26:25;99879.23;;;25.11;31.03
62055;BME280;48653;51.742;-1.256;2023-07-29T11:28:50;99883.59;;;24.30;31.29
62055;BME280;48653;51.742;-1.256;2023-07-29T11:31:17;99886.56;;;24.64;31.11
62055;BME280;48653;51.742;-1.256;2023-07-29T11:33:41;99884.36;;;23.71;31.12
62055;BME280;48653;51.742;-1.256;2023-07-29T11:36:17;99888.96;;;23.41;31.79
62055;BME280;48653;51.742;-1.256;2023-07-29T11:38:33;99883.11;;;24.25;31.78
62055;BME280;48653;51.742;-1.256;2023-07-29T11:41:01;99885.53;;;23.63;30.00
62055;BME280;48653;51.742;-1.256;2023-07-29T11:43:25;99884.92;;;24.72;30.69
62055;BME280;48653;51.742;-1.256;2023-07-29T11:45:51;99901.52;;;24.55;30.14
62055;BME280;48653;51.742;-1.256;2023-07-29T11:48:17;99893.09;;;24.88;30.31
62055;BME280;48653;51.742;-1.256;2023-07-29T11:50:43;99889.88;;;24.30;29.75
62055;BME280;48653;51.742;-1.256;2023-07-29T11:53:08;99882.14;;;25.10;28.86
62055;BME280;48653;51.742;-1.256;2023-07-29T11:55:34;99891.86;;;24.44;29.76
62055;BME280;48653;51.742;-1.256;2023-07-29T11:58:01;99889.33;;;26.18;28.47
62055;BME280;48653;51.742;-1.256;2023-07-29T12:00:26;99880.57;;;25.13;29.94
62055;BME280;48653;51.742;-1.256;2023-07-29T12:02:52;99894.14;;;26.09;29.57
62055;BME280;48653;51.742;-1.256;2023-07-29T12:05:18;99903.70;;;25.68;29.39
62055;BME280;48653;51.742;-1.256;2023-07-29T12:07:45;99906.87;;;25.28;28.56
62055;BME280;48653;51.742;-1.256;2023-07-29T12:10:10;99913.40;;;25.70;29.44
62055;BME280;48653;51.742;-1.256;2023-07-29T12:12:42;99906.45;;;25.88;28.69
62055;BME280;48653;51.742;-1.256;2023-07-29T12:15:01;99905.61;;;25.49;28.90
62055;BME280;48653;51.742;-1.256;2023-07-29T12:17:28;99911.58;;;25.98;28.63
62055;BME280;48653;51.742;-1.256;2023-07-29T12:19:54;99903.44;;;25.30;29.41
62055;BME280;48653;51.742;-1.256;2023-07-29T12:22:19;99910.54;;;24.74;29.80
62055;BME280;48653;51.742;-1.256;2023-07-29T12:24:45;99919.60;;;24.54;30.52
62055;BME280;48653;51.742;-1.256;2023-07-29T12:27:11;99921.20;;;24.09;31.62
62055;BME280;48653;51.742;-1.256;2023-07-29T12:29:40;99922.10;;;24.88;32.13
62055;BME280;48653;51.742;-1.256;2023-07-29T12:32:02;99915.83;;;24.45;32.12
62055;BME280;48653;51.742;-1.256;2023-07-29T12:34:26;99929.04;;;23.89;30.90
62055;BME280;48653;51.742;-1.256;2023-07-29T12:36:52;99931.70;;;24.93;30.91
62055;BME280;48653;51.742;-1.256;2023-07-29T12:39:18;99919.71;;;24.41;30.33
62055;BME280;48653;51.742;-1.256;2023-07-29T12:41:41;99924.64;;;25.44;30.19
62055;BME280;48653;51.742;-1.256;2023-07-29T12:44:07;99925.85;;;25.50;29.92
62055;BME280;48653;51.742;-1.256;2023-07-29T12:46:33;99937.70;;;24.90;30.03
62055;BME280;48653;51.742;-1.256;2023-07-29T12:48:59;99922.15;;;24.71;28.91
62055;BME280;48653;51.742;-1.256;2023-07-29T12:51:26;99935.45;;;24.52;29.89
62055;BME280;48653;51.742;-1.256;2023-07-29T12:53:50;99927.71;;;25.01;29.08